sensor_id;sensor_type;location;lat;lon;timestamp;pressure;altitude;pressure_sealevel;temperature;humidity
5350;BME280;2697;42.144;24.794;2023-04-21T00:01:10;309.69;;;11.20;100.00
5350;BME280;2697;42.144;24.794;2023-04-21T00:03:37;1316.94;;;11.08;100.00
5350;BME280;2697;42.144;24.794;2023-04-21T00:06:06;2659.06;;;10.82;100.00
5350;BME280;2697;42.144;24.794;2023-04-21T00:08:34;-1704.75;;;10.94;100.00
5350;BME280;2697;42.144;24.794;2023-04-21T00:11:05;-3382.44;;;11.03;100.00
5350;BME280;2697;42.144;24.794;2023-04-21T00:13:31;-4052.94;;;10.96;100.00
5350;BME280;2697;42.144;24.794;2023-04-21T00:15:56;-4722.19;;;10.72;100.00
5350;BME280;2697;42.144;24.794;2023-04-21T00:18:21;-7401.47;;;10.61;100.00
5350;BME280;2697;42.144;24.794;2023-04-21T00:20:47;-10080.31;;;10.67;100.00
5350;BME280;2697;42.144;24.794;2023-04-21T00:23:12;-11084.16;;;10.67;100.00
5350;BME280;2697;42.144;24.794;2023-04-21T00:25:37;-12422.06;;;10.66;100.00
5350;BME280;2697;42.144;24.794;2023-04-21T00:28:03;-14093.22;;;10.62;100.00
5350;BME280;2697;42.144;24.794;2023-04-21T00:30:29;-14762.88;;;10.67;100.00
5350;BME280;2697;42.144;24.794;2023-04-21T00:32:54;-15431.91;;;10.70;100.00
5350;BME280;2697;42.144;24.794;2023-04-21T00:35:20;-16433.91;;;10.68;100.00
5350;BME280;2697;42.144;24.794;2023-04-21T00:37:45;-17434.00;;;10.60;100.00
5350;BME280;2697;42.144;24.794;2023-04-21T00:40:11;-19104.88;;;10.64;100.00
5350;BME280;2697;42.144;24.794;2023-04-21T00:42:37;-19439.63;;;10.67;100.00
5350;BME280;2697;42.144;24.794;2023-04-21T00:45:03;-19439.63;;;10.61;100.00
5350;BME280;2697;42.144;24.794;2023-04-21T00:47:29;-19439.50;;;10.60;100.00
5350;BME280;2697;42.144;24.794;2023-04-21T00:49:56;-19438.59;;;10.57;100.00
5350;BME280;2697;42.144;24.794;2023-04-21T00:52:21;-19440.25;;;10.63;100.00
5350;BME280;2697;42.144;24.794;2023-04-21T00:54:47;-19439.34;;;10.60;100.00
5350;BME280;2697;42.144;24.794;2023-04-21T00:57:13;-19437.69;;;10.54;100.00
5350;BME280;2697;42.144;24.794;2023-04-21T00:59:39;-19434.84;;;10.44;100.00
5350;BME280;2697;42.144;24.794;2023-04-21T01:02:04;-19433.34;;;10.39;100.00
5350;BME280;2697;42.144;24.794;2023-04-21T01:04:30;-19433.63;;;10.40;100.00
5350;BME280;2697;42.144;24.794;2023-04-21T01:07:03;-19434.53;;;10.43;100.00
5350;BME280;2697;42.144;24.794;2023-04-21T01:09:29;-19432.44;;;10.36;100.00
5350;BME280;2697;42.144;24.794;2023-04-21T01:12:09;-19438.75;;;10.57;100.00
5350;BME280;2697;42.144;24.794;2023-04-21T01:14:35;-19436.94;;;10.51;100.00
5350;BME280;2697;42.144;24.794;2023-04-21T01:17:01;-19434.38;;;10.43;100.00
5350;BME280;2697;42.144;24.794;2023-04-21T01:19:31;-19437.84;;;10.54;100.00
5350;BME280;2697;42.144;24.794;2023-04-21T01:21:58;-19437.38;;;10.53;100.00
5350;BME280;2697;42.144;24.794;2023-04-21T01:24:40;-19434.25;;;10.42;100.00
5350;BME280;2697;42.144;24.794;2023-04-21T01:27:16;-19430.19;;;10.28;100.00
5350;BME280;2697;42.144;24.794;2023-04-21T01:29:47;-19435.28;;;10.46;100.00
5350;BME280;2697;42.144;24.794;2023-04-21T01:32:19;-19440.53;;;10.64;100.00
5350;BME280;2697;42.144;24.794;2023-04-21T01:34:46;-19442.94;;;10.72;100.00
5350;BME280;2697;42.144;24.794;2023-04-21T01:37:13;-19436.63;;;10.50;100.00
5350;BME280;2697;42.144;24.794;2023-04-21T01:39:40;-19433.50;;;10.40;100.00
5350;BME280;2697;42.144;24.794;2023-04-21T01:42:06;-19430.94;;;10.31;100.00
5350;BME280;2697;42.144;24.794;2023-04-21T01:44:33;-19424.78;;;10.10;100.00
5350;BME280;2697;42.144;24.794;2023-04-21T01:46:59;-19420.13;;;9.94;100.00
5350;BME280;2697;42.144;24.794;2023-04-21T01:49:24;-19422.22;;;10.02;100.00
5350;BME280;2697;42.144;24.794;2023-04-21T01:51:50;-19422.97;;;10.04;100.00
5350;BME280;2697;42.144;24.794;2023-04-21T01:54:15;-19424.19;;;10.08;100.00
5350;BME280;2697;42.144;24.794;2023-04-21T01:56:41;-19420.72;;;9.96;100.00
5350;BME280;2697;42.144;24.794;2023-04-21T01:59:06;-19423.44;;;10.06;100.00
5350;BME280;2697;42.144;24.794;2023-04-21T02:01:32;-19423.44;;;10.06;100.00
5350;BME280;2697;42.144;24.794;2023-04-21T02:03:57;-19428.38;;;10.22;100.00
5350;BME280;2697;42.144;24.794;2023-04-21T02:06:22;-19429.88;;;10.27;100.00
5350;BME280;2697;42.144;24.794;2023-04-21T02:08:48;-19429.00;;;10.24;100.00
5350;BME280;2697;42.144;24.794;2023-04-21T02:11:13;-19432.13;;;10.35;100.00
5350;BME280;2697;42.144;24.794;2023-04-21T02:13:38;-19428.84;;;10.24;100.00
5350;BME280;2697;42.144;24.794;2023-04-21T02:16:04;-19428.53;;;10.23;100.00
5350;BME280;2697;42.144;24.794;2023-04-21T02:18:30;-19425.53;;;10.13;100.00
5350;BME280;2697;42.144;24.794;2023-04-21T02:20:55;-19432.59;;;10.37;100.00
5350;BME280;2697;42.144;24.794;2023-04-21T02:23:20;-19434.84;;;10.44;100.00
5350;BME280;2697;42.144;24.794;2023-04-21T02:25:46;-19430.50;;;10.30;100.00
5350;BME280;2697;42.144;24.794;2023-04-21T02:28:11;-19427.63;;;10.20;100.00
5350;BME280;2697;42.144;24.794;2023-04-21T02:30:37;-19428.38;;;10.22;100.00
5350;BME280;2697;42.144;24.794;2023-04-21T02:33:02;-19427.63;;;10.20;100.00
5350;BME280;2697;42.144;24.794;2023-04-21T02:35:28;-19427.63;;;10.20;100.00
5350;BME280;2697;42.144;24.794;2023-04-21T02:37:53;-19423.13;;;10.05;100.00
5350;BME280;2697;42.144;24.794;2023-04-21T02:40:18;-19421.03;;;9.97;100.00
5350;BME280;2697;42.144;24.794;2023-04-21T02:42:44;-19423.59;;;10.06;100.00
5350;BME280;2697;42.144;24.794;2023-04-21T02:45:09;-19421.94;;;10.00;100.00
5350;BME280;2697;42.144;24.794;2023-04-21T02:47:35;-19419.81;;;9.93;100.00
5350;BME280;2697;42.144;24.794;2023-04-21T02:50:00;-19415.31;;;9.78;100.00
5350;BME280;2697;42.144;24.794;2023-04-21T02:52:26;-19411.41;;;9.65;100.00
5350;BME280;2697;42.144;24.794;2023-04-21T02:54:52;-19411.28;;;9.64;100.00
5350;BME280;2697;42.144;24.794;2023-04-21T02:57:17;-19408.88;;;9.56;100.00
5350;BME280;2697;42.144;24.794;2023-04-21T02:59:42;-19408.72;;;9.56;100.00
5350;BME280;2697;42.144;24.794;2023-04-21T03:02:08;-19406.31;;;9.48;100.00
5350;BME280;2697;42.144;24.794;2023-04-21T03:04:33;-19407.66;;;9.52;100.00
5350;BME280;2697;42.144;24.794;2023-04-21T03:06:59;-19406.31;;;9.48;100.00
5350;BME280;2697;42.144;24.794;2023-04-21T03:09:24;-19405.13;;;9.43;100.00
5350;BME280;2697;42.144;24.794;2023-04-21T03:11:50;-19405.88;;;9.46;100.00
5350;BME280;2697;42.144;24.794;2023-04-21T03:14:15;-19404.97;;;9.43;100.00
5350;BME280;2697;42.144;24.794;2023-04-21T03:16:40;-19402.72;;;9.35;100.00
5350;BME280;2697;42.144;24.794;2023-04-21T03:19:06;-19401.22;;;9.30;100.00
5350;BME280;2697;42.144;24.794;2023-04-21T03:21:31;-19407.22;;;9.51;100.00
5350;BME280;2697;42.144;24.794;2023-04-21T03:23:57;-19403.75;;;9.39;100.00
5350;BME280;2697;42.144;24.794;2023-04-21T03:26:22;-19393.41;;;9.04;100.00
5350;BME280;2697;42.144;24.794;2023-04-21T03:28:47;-19405.88;;;9.46;100.00
5350;BME280;2697;42.144;24.794;2023-04-21T03:31:13;-19402.88;;;9.36;100.00
5350;BME280;2697;42.144;24.794;2023-04-21T03:33:38;-19404.81;;;9.42;100.00
5350;BME280;2697;42.144;24.794;2023-04-21T03:36:04;-19404.22;;;9.40;100.00
5350;BME280;2697;42.144;24.794;2023-04-21T03:38:30;-19404.81;;;9.42;100.00
5350;BME280;2697;42.144;24.794;2023-04-21T03:40:56;-19399.88;;;9.26;100.00
5350;BME280;2697;42.144;24.794;2023-04-21T03:43:21;-19400.63;;;9.28;100.00
5350;BME280;2697;42.144;24.794;2023-04-21T03:45:46;-19399.72;;;9.25;100.00
5350;BME280;2697;42.144;24.794;2023-04-21T03:48:12;-19401.22;;;9.30;100.00
5350;BME280;2697;42.144;24.794;2023-04-21T03:50:37;-19401.97;;;9.33;100.00
5350;BME280;2697;42.144;24.794;2023-04-21T03:53:03;-19407.22;;;9.51;100.00
5350;BME280;2697;42.144;24.794;2023-04-21T03:55:28;-19406.63;;;9.49;100.00
5350;BME280;2697;42.144;24.794;2023-04-21T03:57:53;-19406.91;;;9.50;100.00
5350;BME280;2697;42.144;24.794;2023-04-21T04:00:19;-19409.31;;;9.58;100.00
5350;BME280;2697;42.144;24.794;2023-04-21T04:02:45;-19412.03;;;9.67;100.00
5350;BME280;2697;42.144;24.794;2023-04-21T04:05:11;-19406.16;;;9.47;100.00
5350;BME280;2697;42.144;24.794;2023-04-21T04:07:36;-19405.88;;;9.46;100.00
5350;BME280;2697;42.144;24.794;2023-04-21T04:10:01;-19410.66;;;9.62;100.00
5350;BME280;2697;42.144;24.794;2023-04-21T04:12:27;-19417.13;;;9.84;100.00
5350;BME280;2697;42.144;24.794;2023-04-21T04:14:52;-19418.63;;;9.89;100.00
5350;BME280;2697;42.144;24.794;2023-04-21T04:17:18;-19435.28;;;10.46;100.00
5350;BME280;2697;42.144;24.794;2023-04-21T04:19:43;-19453.44;;;11.07;100.00
5350;BME280;2697;42.144;24.794;2023-04-21T04:22:08;-19442.34;;;10.70;100.00
5350;BME280;2697;42.144;24.794;2023-04-21T04:24:34;-19441.44;;;10.67;100.00
5350;BME280;2697;42.144;24.794;2023-04-21T04:27:01;-19451.03;;;10.99;100.00
5350;BME280;2697;42.144;24.794;2023-04-21T04:29:27;-19125.78;;;11.36;100.00
5350;BME280;2697;42.144;24.794;2023-04-21T04:31:53;-15466.31;;;12.19;100.00
5350;BME280;2697;42.144;24.794;2023-04-21T04:34:19;-7421.97;;;12.66;100.00
5350;BME280;2697;42.144;24.794;2023-04-21T04:36:45;6721.38;;;13.14;100.00
5350;BME280;2697;42.144;24.794;2023-04-21T04:39:12;23637.88;;;13.28;100.00
5350;BME280;2697;42.144;24.794;2023-04-21T04:41:38;37911.22;;;13.41;100.00
5350;BME280;2697;42.144;24.794;2023-04-21T04:44:03;64960.78;;;14.07;100.00
5350;BME280;2697;42.144;24.794;2023-04-21T04:46:30;80414.50;;;13.97;100.00
5350;BME280;2697;42.144;24.794;2023-04-21T04:48:55;83890.22;;;14.19;100.00
5350;BME280;2697;42.144;24.794;2023-04-21T04:51:20;102550.69;;;14.20;100.00
5350;BME280;2697;42.144;24.794;2023-04-21T04:53:47;156674.31;;;15.90;100.00
5350;BME280;2697;42.144;24.794;2023-04-21T04:56:12;156694.16;;;15.98;100.00
5350;BME280;2697;42.144;24.794;2023-04-21T04:58:38;156724.56;;;16.09;100.00
5350;BME280;2697;42.144;24.794;2023-04-21T05:01:13;156724.56;;;16.09;100.00
5350;BME280;2697;42.144;24.794;2023-04-21T05:03:40;156991.81;;;17.12;100.00
5350;BME280;2697;42.144;24.794;2023-04-21T05:06:05;157015.63;;;17.21;100.00
5350;BME280;2697;42.144;24.794;2023-04-21T05:08:31;156900.56;;;16.77;100.00
5350;BME280;2697;42.144;24.794;2023-04-21T05:10:56;157318.91;;;18.38;100.00
5350;BME280;2697;42.144;24.794;2023-04-21T05:13:22;157550.88;;;19.27;92.11
5350;BME280;2697;42.144;24.794;2023-04-21T05:15:47;157564.09;;;19.32;88.52
5350;BME280;2697;42.144;24.794;2023-04-21T05:18:12;157169.28;;;17.80;100.00
5350;BME280;2697;42.144;24.794;2023-04-21T05:20:41;157158.66;;;17.76;100.00
5350;BME280;2697;42.144;24.794;2023-04-21T05:23:07;157224.88;;;18.02;100.00
5350;BME280;2697;42.144;24.794;2023-04-21T05:25:32;157394.47;;;18.67;90.62
5350;BME280;2697;42.144;24.794;2023-04-21T05:27:57;157224.88;;;18.02;83.29
5350;BME280;2697;42.144;24.794;2023-04-21T05:30:23;157481.94;;;19.00;78.31
5350;BME280;2697;42.144;24.794;2023-04-21T05:32:49;157484.59;;;19.01;76.72
5350;BME280;2697;42.144;24.794;2023-04-21T05:35:14;157702.03;;;19.85;72.60
5350;BME280;2697;42.144;24.794;2023-04-21T05:37:40;157569.38;;;19.34;73.23
5350;BME280;2697;42.144;24.794;2023-04-21T05:40:06;157621.06;;;19.54;72.89
5350;BME280;2697;42.144;24.794;2023-04-21T05:42:31;157619.75;;;19.53;69.37
5350;BME280;2697;42.144;24.794;2023-04-21T05:44:57;157627.78;;;19.56;67.18
5350;BME280;2697;42.144;24.794;2023-04-21T05:47:22;157656.94;;;19.68;65.30
5350;BME280;2697;42.144;24.794;2023-04-21T05:49:50;157637.06;;;19.60;67.43
5350;BME280;2697;42.144;24.794;2023-04-21T05:52:17;157684.78;;;19.78;65.87
5350;BME280;2697;42.144;24.794;2023-04-21T05:54:43;157847.91;;;20.41;63.25
5350;BME280;2697;42.144;24.794;2023-04-21T05:57:08;157826.69;;;20.33;62.82
5350;BME280;2697;42.144;24.794;2023-04-21T05:59:34;157739.13;;;19.99;63.76
5350;BME280;2697;42.144;24.794;2023-04-21T06:01:59;157755.06;;;20.05;62.27
5350;BME280;2697;42.144;24.794;2023-04-21T06:04:25;157747.13;;;20.02;62.68
5350;BME280;2697;42.144;24.794;2023-04-21T06:06:50;157763.00;;;20.08;62.42
5350;BME280;2697;42.144;24.794;2023-04-21T06:09:15;157863.84;;;20.47;62.30
5350;BME280;2697;42.144;24.794;2023-04-21T06:14:06;157728.53;;;19.95;60.55
5350;BME280;2697;42.144;24.794;2023-04-21T06:16:31;157715.25;;;19.90;60.27
5350;BME280;2697;42.144;24.794;2023-04-21T06:18:58;157858.56;;;20.45;57.64
5350;BME280;2697;42.144;24.794;2023-04-21T06:21:24;157788.19;;;20.18;57.17
5350;BME280;2697;42.144;24.794;2023-04-21T06:23:49;157725.91;;;19.94;57.83
5350;BME280;2697;42.144;24.794;2023-04-21T06:26:14;157765.66;;;20.09;58.17
5350;BME280;2697;42.144;24.794;2023-04-21T06:28:40;157882.44;;;20.54;56.50
5350;BME280;2697;42.144;24.794;2023-04-21T06:31:05;157859.88;;;20.45;54.50
5350;BME280;2697;42.144;24.794;2023-04-21T06:33:31;157845.28;;;20.40;54.78
5350;BME280;2697;42.144;24.794;2023-04-21T06:35:57;157776.28;;;20.13;55.70
5350;BME280;2697;42.144;24.794;2023-04-21T06:38:22;157675.53;;;19.75;55.31
5350;BME280;2697;42.144;24.794;2023-04-21T06:40:49;157788.19;;;20.18;54.30
5350;BME280;2697;42.144;24.794;2023-04-21T06:43:14;157816.06;;;20.29;54.33
5350;BME280;2697;42.144;24.794;2023-04-21T06:45:40;157863.84;;;20.47;53.79
5350;BME280;2697;42.144;24.794;2023-04-21T06:48:05;157805.47;;;20.25;54.49
5350;BME280;2697;42.144;24.794;2023-04-21T06:50:31;157835.94;;;20.36;54.62
5350;BME280;2697;42.144;24.794;2023-04-21T06:52:56;157806.78;;;20.25;54.77
5350;BME280;2697;42.144;24.794;2023-04-21T06:55:22;157732.53;;;19.97;55.07
5350;BME280;2697;42.144;24.794;2023-04-21T06:57:47;157800.16;;;20.23;55.05
5350;BME280;2697;42.144;24.794;2023-04-21T07:00:13;157704.69;;;19.86;55.26
5350;BME280;2697;42.144;24.794;2023-04-21T07:02:38;157524.31;;;19.17;57.37
5350;BME280;2697;42.144;24.794;2023-04-21T07:05:04;157271.22;;;18.19;60.41
5350;BME280;2697;42.144;24.794;2023-04-21T07:07:29;157285.81;;;18.25;62.78
5350;BME280;2697;42.144;24.794;2023-04-21T07:09:55;157227.53;;;18.03;62.57
5350;BME280;2697;42.144;24.794;2023-04-21T07:12:20;157235.50;;;18.06;63.46
5350;BME280;2697;42.144;24.794;2023-04-21T07:14:46;157132.13;;;17.66;64.87
5350;BME280;2697;42.144;24.794;2023-04-21T07:17:11;157189.16;;;17.88;65.15
5350;BME280;2697;42.144;24.794;2023-04-21T07:19:36;157206.31;;;17.94;65.14
5350;BME280;2697;42.144;24.794;2023-04-21T07:22:02;157132.13;;;17.66;65.80
5350;BME280;2697;42.144;24.794;2023-04-21T07:24:27;157175.88;;;17.83;66.75
5350;BME280;2697;42.144;24.794;2023-04-21T07:26:53;157206.31;;;17.94;67.12
5350;BME280;2697;42.144;24.794;2023-04-21T07:29:18;157224.88;;;18.02;66.55
5350;BME280;2697;42.144;24.794;2023-04-21T07:31:44;157242.09;;;18.08;65.45
5350;BME280;2697;42.144;24.794;2023-04-21T07:34:11;157256.66;;;18.14;65.82
5350;BME280;2697;42.144;24.794;2023-04-21T07:36:36;157283.19;;;18.24;65.79
5350;BME280;2697;42.144;24.794;2023-04-21T07:39:02;157285.81;;;18.25;65.97
5350;BME280;2697;42.144;24.794;2023-04-21T07:41:28;157276.53;;;18.21;67.16
5350;BME280;2697;42.144;24.794;2023-04-21T07:43:53;157370.56;;;18.58;66.66
5350;BME280;2697;42.144;24.794;2023-04-21T07:46:19;157403.72;;;18.70;66.13
5350;BME280;2697;42.144;24.794;2023-04-21T07:48:47;157439.53;;;18.84;65.29
5350;BME280;2697;42.144;24.794;2023-04-21T07:51:12;157447.47;;;18.87;65.57
5350;BME280;2697;42.144;24.794;2023-04-21T07:53:39;157413.03;;;18.74;64.10
5350;BME280;2697;42.144;24.794;2023-04-21T07:56:05;157371.91;;;18.58;63.79
5350;BME280;2697;42.144;24.794;2023-04-21T07:58:31;157397.13;;;18.68;63.96
5350;BME280;2697;42.144;24.794;2023-04-21T08:00:56;157435.56;;;18.83;62.76
5350;BME280;2697;42.144;24.794;2023-04-21T08:03:22;157434.25;;;18.82;62.78
5350;BME280;2697;42.144;24.794;2023-04-21T08:05:47;157417.00;;;18.75;63.04
5350;BME280;2697;42.144;24.794;2023-04-21T08:08:13;157432.91;;;18.82;63.57
5350;BME280;2697;42.144;24.794;2023-04-21T08:10:44;157448.78;;;18.88;62.49
5350;BME280;2697;42.144;24.794;2023-04-21T08:13:09;157471.31;;;18.96;63.92
5350;BME280;2697;42.144;24.794;2023-04-21T08:15:35;157513.72;;;19.13;63.82
5350;BME280;2697;42.144;24.794;2023-04-21T08:18:00;157580.00;;;19.38;63.14
5350;BME280;2697;42.144;24.794;2023-04-21T08:20:26;157631.75;;;19.58;63.14
5350;BME280;2697;42.144;24.794;2023-04-21T08:22:51;157633.09;;;19.58;62.71
5350;BME280;2697;42.144;24.794;2023-04-21T08:25:16;157696.75;;;19.83;60.69
5350;BME280;2697;42.144;24.794;2023-04-21T08:27:42;157724.56;;;19.93;59.15
5350;BME280;2697;42.144;24.794;2023-04-21T08:30:08;157662.25;;;19.70;59.21
5350;BME280;2697;42.144;24.794;2023-04-21T08:32:34;157637.06;;;19.60;57.58
5350;BME280;2697;42.144;24.794;2023-04-21T08:34:59;157627.78;;;19.56;56.88
5350;BME280;2697;42.144;24.794;2023-04-21T08:37:24;157723.25;;;19.93;57.05
5350;BME280;2697;42.144;24.794;2023-04-21T08:39:50;157695.41;;;19.82;57.02
5350;BME280;2697;42.144;24.794;2023-04-21T08:42:16;157666.22;;;19.71;55.67
5350;BME280;2697;42.144;24.794;2023-04-21T08:44:43;157698.06;;;19.83;54.55
5350;BME280;2697;42.144;24.794;2023-04-21T08:47:12;157712.63;;;19.89;55.22
5350;BME280;2697;42.144;24.794;2023-04-21T08:49:39;157747.13;;;20.02;55.59
5350;BME280;2697;42.144;24.794;2023-04-21T08:52:05;157763.00;;;20.08;55.75
5350;BME280;2697;42.144;24.794;2023-04-21T08:54:31;157756.38;;;20.06;55.49
5350;BME280;2697;42.144;24.794;2023-04-21T08:56:57;157780.25;;;20.15;54.63
5350;BME280;2697;42.144;24.794;2023-04-21T08:59:22;157772.31;;;20.12;53.11
5350;BME280;2697;42.144;24.794;2023-04-21T09:02:17;157824.03;;;20.32;52.62
5350;BME280;2697;42.144;24.794;2023-04-21T09:04:47;157837.28;;;20.37;52.83
5350;BME280;2697;42.144;24.794;2023-04-21T09:07:35;157732.53;;;19.97;53.35
5350;BME280;2697;42.144;24.794;2023-04-21T09:10:02;157816.06;;;20.29;53.94
5350;BME280;2697;42.144;24.794;2023-04-21T09:12:29;157755.06;;;20.05;52.17
5350;BME280;2697;42.144;24.794;2023-04-21T09:14:54;157839.94;;;20.38;52.79
5350;BME280;2697;42.144;24.794;2023-04-21T09:17:22;157797.53;;;20.21;52.63
5350;BME280;2697;42.144;24.794;2023-04-21T09:19:52;157895.72;;;20.59;52.28
5350;BME280;2697;42.144;24.794;2023-04-21T09:22:17;157912.94;;;20.66;52.36
5350;BME280;2697;42.144;24.794;2023-04-21T09:24:44;157946.13;;;20.78;50.82
5350;BME280;2697;42.144;24.794;2023-04-21T09:27:11;158004.50;;;21.01;49.91
5350;BME280;2697;42.144;24.794;2023-04-21T09:29:36;158012.50;;;21.04;50.16
5350;BME280;2697;42.144;24.794;2023-04-21T09:32:02;157991.25;;;20.96;49.74
5350;BME280;2697;42.144;24.794;2023-04-21T09:34:27;157983.28;;;20.93;48.89
5350;BME280;2697;42.144;24.794;2023-04-21T09:37:00;158045.66;;;21.17;49.59
5350;BME280;2697;42.144;24.794;2023-04-21T09:39:28;157972.66;;;20.89;49.28
5350;BME280;2697;42.144;24.794;2023-04-21T09:41:55;157971.34;;;20.88;50.63
5350;BME280;2697;42.144;24.794;2023-04-21T09:44:21;157895.72;;;20.59;49.77
5350;BME280;2697;42.144;24.794;2023-04-21T09:46:49;157914.31;;;20.66;50.25
5350;BME280;2697;42.144;24.794;2023-04-21T09:49:22;157919.59;;;20.68;50.05
5350;BME280;2697;42.144;24.794;2023-04-21T09:51:48;157967.38;;;20.87;50.69
5350;BME280;2697;42.144;24.794;2023-04-21T09:54:16;157993.91;;;20.97;49.80
5350;BME280;2697;42.144;24.794;2023-04-21T09:56:42;158035.06;;;21.13;48.66
5350;BME280;2697;42.144;24.794;2023-04-21T09:59:14;158062.94;;;21.23;49.61
5350;BME280;2697;42.144;24.794;2023-04-21T10:01:42;158057.59;;;21.21;48.58
5350;BME280;2697;42.144;24.794;2023-04-21T10:04:08;158041.69;;;21.15;48.29
5350;BME280;2697;42.144;24.794;2023-04-21T10:06:34;157885.09;;;20.55;48.65
5350;BME280;2697;42.144;24.794;2023-04-21T10:09:01;157992.59;;;20.96;48.69
5350;BME280;2697;42.144;24.794;2023-04-21T10:11:28;157975.31;;;20.90;46.78
5350;BME280;2697;42.144;24.794;2023-04-21T10:13:54;158057.59;;;21.21;47.47
5350;BME280;2697;42.144;24.794;2023-04-21T10:16:19;158238.22;;;21.90;47.01
5350;BME280;2697;42.144;24.794;2023-04-21T10:18:47;158357.78;;;22.36;45.91
5350;BME280;2697;42.144;24.794;2023-04-21T10:21:19;158371.03;;;22.41;44.28
5350;BME280;2697;42.144;24.794;2023-04-21T10:23:50;158373.69;;;22.42;43.81
5350;BME280;2697;42.144;24.794;2023-04-21T10:26:21;158355.13;;;22.35;44.98
5350;BME280;2697;42.144;24.794;2023-04-21T10:28:55;158379.03;;;22.44;44.96
5350;BME280;2697;42.144;24.794;2023-04-21T10:31:31;158469.34;;;22.79;43.44
5350;BME280;2697;42.144;24.794;2023-04-21T10:34:21;158413.56;;;22.58;43.31
5350;BME280;2697;42.144;24.794;2023-04-21T10:39:31;158555.78;;;23.12;43.77
5350;BME280;2697;42.144;24.794;2023-04-21T10:44:42;158714.00;;;23.73;41.14
5350;BME280;2697;42.144;24.794;2023-04-21T10:47:07;158765.91;;;23.93;42.11
5350;BME280;2697;42.144;24.794;2023-04-21T10:49:37;158663.44;;;23.53;42.95
5350;BME280;2697;42.144;24.794;2023-04-21T10:52:05;158902.88;;;24.45;39.58
5350;BME280;2697;42.144;24.794;2023-04-21T10:55:04;158716.69;;;23.74;40.15
5350;BME280;2697;42.144;24.794;2023-04-21T10:57:32;158642.22;;;23.45;41.36
5350;BME280;2697;42.144;24.794;2023-04-21T10:59:58;158457.41;;;22.74;40.77
5350;BME280;2697;42.144;24.794;2023-04-21T11:02:25;158312.63;;;22.19;43.29
5350;BME280;2697;42.144;24.794;2023-04-21T11:04:52;158065.56;;;21.24;44.58
5350;BME280;2697;42.144;24.794;2023-04-21T11:07:19;158027.06;;;21.10;45.52
5350;BME280;2697;42.144;24.794;2023-04-21T11:09:46;158134.66;;;21.51;46.96
5350;BME280;2697;42.144;24.794;2023-04-21T11:12:14;158040.38;;;21.15;47.65
5350;BME280;2697;42.144;24.794;2023-04-21T11:14:41;157999.22;;;20.99;46.52
5350;BME280;2697;42.144;24.794;2023-04-21T11:17:15;158173.13;;;21.66;46.98
5350;BME280;2697;42.144;24.794;2023-04-21T11:19:45;158145.25;;;21.55;49.65
5350;BME280;2697;42.144;24.794;2023-04-21T11:22:11;158246.16;;;21.94;48.62
5350;BME280;2697;42.144;24.794;2023-04-21T11:24:36;158242.19;;;21.92;48.33
5350;BME280;2697;42.144;24.794;2023-04-21T11:27:02;158336.53;;;22.28;47.26
5350;BME280;2697;42.144;24.794;2023-04-21T11:29:28;158394.94;;;22.51;46.08
5350;BME280;2697;42.144;24.794;2023-04-21T11:31:54;158558.44;;;23.13;45.56
5350;BME280;2697;42.144;24.794;2023-04-21T11:34:20;158506.63;;;22.93;44.61
5350;BME280;2697;42.144;24.794;2023-04-21T11:36:47;158597.00;;;23.28;43.49
5350;BME280;2697;42.144;24.794;2023-04-21T11:39:15;158626.25;;;23.39;43.30
5350;BME280;2697;42.144;24.794;2023-04-21T11:41:43;158727.31;;;23.78;42.87
5350;BME280;2697;42.144;24.794;2023-04-21T11:44:10;158791.16;;;24.02;43.39
5350;BME280;2697;42.144;24.794;2023-04-21T11:46:36;158561.09;;;23.14;44.50
5350;BME280;2697;42.144;24.794;2023-04-21T11:49:10;158731.28;;;23.79;41.99
5350;BME280;2697;42.144;24.794;2023-04-21T11:51:40;158727.31;;;23.78;42.01
5350;BME280;2697;42.144;24.794;2023-04-21T11:54:10;158639.50;;;23.44;42.70
5350;BME280;2697;42.144;24.794;2023-04-21T11:56:40;158719.34;;;23.75;40.49
5350;BME280;2697;42.144;24.794;2023-04-21T11:59:10;158719.34;;;23.75;40.39
5350;BME280;2697;42.144;24.794;2023-04-21T12:01:45;158607.63;;;23.32;41.27
5350;BME280;2697;42.144;24.794;2023-04-21T12:04:18;158559.78;;;23.14;41.66
5350;BME280;2697;42.144;24.794;2023-04-21T12:06:55;158574.41;;;23.19;41.60
5350;BME280;2697;42.144;24.794;2023-04-21T12:09:21;158735.28;;;23.81;40.30
5350;BME280;2697;42.144;24.794;2023-04-21T12:11:48;158668.78;;;23.55;40.81
5350;BME280;2697;42.144;24.794;2023-04-21T12:14:15;158747.28;;;23.85;39.70
5350;BME280;2697;42.144;24.794;2023-04-21T12:16:42;158658.13;;;23.51;40.04
5350;BME280;2697;42.144;24.794;2023-04-21T12:19:07;158682.09;;;23.60;40.54
5350;BME280;2697;42.144;24.794;2023-04-21T12:21:36;158781.81;;;23.99;39.86
5350;BME280;2697;42.144;24.794;2023-04-21T12:24:01;158777.84;;;23.97;40.27
5350;BME280;2697;42.144;24.794;2023-04-21T12:26:28;158893.59;;;24.41;40.36
5350;BME280;2697;42.144;24.794;2023-04-21T12:28:54;159002.66;;;24.83;38.83
5350;BME280;2697;42.144;24.794;2023-04-21T12:31:19;159006.63;;;24.85;38.50
5350;BME280;2697;42.144;24.794;2023-04-21T12:33:45;158897.59;;;24.43;40.15
5350;BME280;2697;42.144;24.794;2023-04-21T12:36:11;158659.44;;;23.52;40.12
5350;BME280;2697;42.144;24.794;2023-04-21T12:38:37;158501.31;;;22.91;42.26
5350;BME280;2697;42.144;24.794;2023-04-21T12:41:03;158493.31;;;22.88;42.78
5350;BME280;2697;42.144;24.794;2023-04-21T12:43:28;158413.56;;;22.58;42.66
5350;BME280;2697;42.144;24.794;2023-04-21T12:45:54;158182.44;;;21.69;45.05
5350;BME280;2697;42.144;24.794;2023-04-21T12:48:21;157958.06;;;20.83;47.38
5350;BME280;2697;42.144;24.794;2023-04-21T12:50:46;157858.56;;;20.45;48.88
5350;BME280;2697;42.144;24.794;2023-04-21T12:53:12;157725.91;;;19.94;51.49
5350;BME280;2697;42.144;24.794;2023-04-21T12:55:38;157434.25;;;18.82;63.33
5350;BME280;2697;42.144;24.794;2023-04-21T12:58:03;157011.69;;;17.20;76.04
5350;BME280;2697;42.144;24.794;2023-04-21T13:00:29;156870.03;;;16.65;80.22
5350;BME280;2697;42.144;24.794;2023-04-21T13:02:54;156719.28;;;16.07;76.94